Wales Center, NY (14169)

11:10 AM EDT on September 19, 2014 (GMT -0400)
Fish Hill Farm | Change Station
CLOSE
Current Station
Personal Weather Station
Location: South Wales, NY
Elevation: 1414 ft
Nearby Weather Stations

Elev 1414 ft 42.70 °N, 78.49 °W | Updated 1 minute ago

Clear
Clear
53.4 °F
Feels Like 53.4 °F
N
3.0
Wind Variable Wind from NW
Gusts 20.0 mph

Today
High -- | Low -- °F
--% Chance of Precip.
Yesterday
High -- | Low -- °F
Precip. -- in
6:58 AM 7:16 PM
Waning Crescent, 18% visible
Pressure 30.33 in
Visibility 10.0 miles
Clouds Few 1800 ft
Few 27000 ft
Dew Point 44 °F
Humidity 71%
Rainfall 0.01 in
Snow Depth Not available.
UV 1.7 out of 12
Pollen 3.40 out of 12
PM2.5 Good
Flu Activity Not available.
METAR KBUF 191454Z 14006KT 10SM FEW018 FEW270 11/06 A3032 RMK AO2 SLP270 T01110061 51005

More Conditions Fewer Conditions

Pressure 30.33 in
Visibility 10.0 miles
Clouds Few 1800 ft
Few 27000 ft
Dew Point 44 °F
Humidity 71%
Rainfall 0.01 in
Snow Depth Not available.
UV 1.7 out of 12
Pollen 3.40 out of 12
PM2.5 Good
Flu Activity Not available.
METAR KBUF 191454Z 14006KT 10SM FEW018 FEW270 11/06 A3032 RMK AO2 SLP270 T01110061 51005

More Conditions Fewer Conditions

10-Day Weather Forecast

Almanac

Astronomy

Sep. 19, 2014 Rise Set
Actual Time 6:58 AM EDT 7:16 PM EDT
Civil Twilight 6:29 AM EDT 7:45 PM EDT
Nautical Twilight 5:56 AM EDT 8:18 PM EDT
Astronomical Twilight 5:22 AM EDT 8:52 PM EDT
Moon 2:36 AM EDT 4:48 PM EDT
Length of Visible Light 13h 15m
Length of Day
12h 18m
Tomorrow will be 2m 52s shorter.
Waning Crescent, 18% of the Moon is Illuminated
Today
Waning Crescent
Sep 24
New
Oct 1
First Quarter
Oct 8
Full
Oct 15
Last Quarter

Today's Extremes

State Highs State Lows

Community

WunderPhotos

Upload Photos

1,754,634 photos uploaded!

WunderBlogs® & News

By Dr. Jeff Masters
Director of Meteorology, Weather Underground
By Kari Strenfel
Meteorologist, Weather Underground
By Christopher C. Burt
Weather Historian, Weather Underground
September 19, 2014
September 19, 2014
September 19, 2014

Nearby

Air Quality

  Air Quality AQ Index Pollutant
Yesterday Good
PM2.5
Yesterday Good
OZONE
Current Good
PM2.5
Friday Good
OZONE
Friday Good
PM2.5

Snow Depth

Station Depth Elevation
No new snow has been reported.

Earthquake Activity

City Distance Mag. Time & Date
No recent earthquake activity has been reported nearby.
Minimum magnitude displayed is 2.5.

Coastal Water Temperatures

Place Temperature
Buffalo, NY 66.9 °F

Nearby Weather Stations